This is the latest recevied weather packets stored in our database for station/object KO5MO-11. If no packets are shown the sender has not sent any weather packets the latest 10 day(s).
| Time | Temp. | Humidity | Pressure | Rain* | Wind** | Luminosity | Snow |
|---|---|---|---|---|---|---|---|
| 1777731872 | 25° C | 34% | 1012 hPa | - | - | 774 W/m² | - |
| 1777731272 | 25.56° C | 34% | 1011.9 hPa | - | - | 787 W/m² | - |
| 1777730672 | 24.44° C | 35% | 1011.7 hPa | - | - | 765 W/m² | - |
| 1777730072 | 25° C | 33% | 1011.7 hPa | - | - | 777 W/m² | - |
| 1777729472 | 25° C | 35% | 1011.5 hPa | - | - | 776 W/m² | - |
| 1777728872 | 24.44° C | 36% | 1011.3 hPa | - | - | 768 W/m² | - |
| 1777728272 | 24.44° C | 35% | 1011.1 hPa | - | - | 762 W/m² | - |
| 1777727673 | 25.56° C | 33% | 1011 hPa | - | - | 788 W/m² | - |
| 1777727072 | 24.44° C | 37% | 1010.9 hPa | - | - | 765 W/m² | - |
| 1777726472 | 23.89° C | 35% | 1010.8 hPa | - | - | 759 W/m² | - |
| 1777725872 | 25° C | 35% | 1010.6 hPa | - | - | 772 W/m² | - |
| 1777725272 | 26.11° C | 34% | 1010.5 hPa | - | - | 793 W/m² | - |
| 1777724672 | 23.89° C | 35% | 1010.4 hPa | - | - | 758 W/m² | - |
| 1777724072 | 24.44° C | 35% | 1010.3 hPa | - | - | 769 W/m² | - |
| 1777723472 | 26.11° C | 33% | 1010.2 hPa | - | - | 794 W/m² | - |
| 1777722872 | 25° C | 36% | 1010.2 hPa | - | - | 770 W/m² | - |
| 1777722272 | 24.44° C | 36% | 1010.1 hPa | - | - | 763 W/m² | - |
| 1777721672 | 24.44° C | 36% | 1010.1 hPa | - | - | 769 W/m² | - |
| 1777721072 | 26.11° C | 33% | 1010.1 hPa | - | - | 794 W/m² | - |
| 1777720472 | 24.44° C | 37% | 1010.1 hPa | - | - | 765 W/m² | - |
| 1777719872 | 23.89° C | 36% | 1010 hPa | - | - | 757 W/m² | - |
| 1777719272 | 24.44° C | 35% | 1010 hPa | - | - | 767 W/m² | - |
| 1777718672 | 25.56° C | 34% | 1009.9 hPa | - | - | 788 W/m² | - |
| 1777718072 | 24.44° C | 37% | 1009.8 hPa | - | - | 763 W/m² | - |
| 1777717472 | 23.89° C | 35% | 1009.8 hPa | - | - | 759 W/m² | - |
* Rain since midnight (hover to see other rain measurements)
** Current wind speed in m/s (hover to see current wind gust speed)